Time;durP1;ratioP1;P1;durP2;ratioP2;P2;SDS_P1;SDS_P2;PMS_P1;PMS_P2;Temp;Humidity;BMP_temperature;BMP_pressure;BME280_temperature;BME280_humidity;BME280_pressure;Samples;Min_cycle;Max_cycle;Signal;HPM_P1;HPM_P2
2022/05/01 00:01:15;;;;;;;2.97;2.77;;;14.50;96.70;;;;;;5047096;28;20200;-68
2022/05/01 00:03:43;;;;;;;3.70;3.13;;;14.50;96.80;;;;;;5047042;28;20560;-68
2022/05/01 00:06:16;;;;;;;4.47;3.00;;;14.40;96.90;;;;;;5047218;28;20244;-68
2022/05/01 00:08:43;;;;;;;2.43;2.33;;;14.40;96.90;;;;;;5047184;28;20257;-68
2022/05/01 00:11:16;;;;;;;6.50;2.97;;;14.40;96.90;;;;;;5047267;28;20208;-68
2022/05/01 00:13:44;;;;;;;3.47;2.80;;;14.40;96.80;;;;;;5061453;28;20231;-68
2022/05/01 00:16:14;;;;;;;5.47;3.00;;;14.40;96.80;;;;;;5066805;28;20536;-68
2022/05/01 00:18:41;;;;;;;3.70;2.90;;;14.40;96.80;;;;;;5067575;28;20204;-68
2022/05/01 00:21:16;;;;;;;5.70;2.93;;;14.30;96.60;;;;;;5064972;28;20257;-68
2022/05/01 00:23:42;;;;;;;3.50;2.70;;;14.40;96.50;;;;;;5059546;28;20211;-68
2022/05/01 00:26:15;;;;;;;3.07;2.70;;;14.30;96.50;;;;;;5067331;28;20643;-68
2022/05/01 00:28:42;;;;;;;3.93;2.87;;;14.30;96.50;;;;;;5067321;28;20249;-68
2022/05/01 00:31:19;;;;;;;4.93;2.80;;;14.30;96.60;;;;;;5067338;28;20266;-68
2022/05/01 00:36:31;;;;;;;4.87;2.97;;;14.20;96.60;;;;;;5067000;28;20263;-68
2022/05/01 00:39:00;;;;;;;3.87;2.97;;;14.20;96.50;;;;;;5066535;28;20285;-68
2022/05/01 00:41:27;;;;;;;6.10;3.20;;;14.10;96.60;;;;;;5066883;28;20222;-68
2022/05/01 00:44:03;;;;;;;3.80;2.93;;;14.10;96.60;;;;;;5067245;28;20207;-68
2022/05/01 00:46:31;;;;;;;6.67;3.10;;;14.20;96.70;;;;;;5066783;28;20223;-68
2022/05/01 00:48:59;;;;;;;3.37;3.17;;;14.10;96.70;;;;;;5066846;28;20211;-68
2022/05/01 00:51:28;;;;;;;4.03;3.27;;;14.10;96.70;;;;;;5066522;28;20211;-68
2022/05/01 00:53:57;;;;;;;4.90;2.80;;;14.10;96.70;;;;;;5068602;28;20253;-68
2022/05/01 00:56:25;;;;;;;3.90;2.70;;;14.00;96.90;;;;;;5070377;28;20204;-68
2022/05/01 00:58:52;;;;;;;4.10;3.00;;;14.00;96.90;;;;;;5070345;28;20576;-68
2022/05/01 01:01:20;;;;;;;4.87;3.20;;;14.00;97.00;;;;;;5069795;28;20658;-68
2022/05/01 01:03:46;;;;;;;6.50;3.03;;;14.00;97.00;;;;;;5070361;28;20207;-68
2022/05/01 01:06:13;;;;;;;3.43;3.03;;;14.00;97.00;;;;;;5069821;28;20227;-68
2022/05/01 01:08:40;;;;;;;3.97;2.93;;;14.00;97.00;;;;;;5069788;28;20273;-68
2022/05/01 01:11:15;;;;;;;3.20;2.93;;;13.90;97.00;;;;;;5070220;28;20208;-68
2022/05/01 01:13:43;;;;;;;3.90;2.97;;;13.90;97.10;;;;;;5067950;28;20227;-68
2022/05/01 01:16:10;;;;;;;3.37;3.00;;;13.90;97.10;;;;;;5050055;28;20212;-68
2022/05/01 01:18:39;;;;;;;5.00;2.93;;;13.80;97.20;;;;;;5049966;28;21040;-68
2022/05/01 01:21:13;;;;;;;5.93;3.30;;;13.80;97.20;;;;;;5051907;28;20291;-68
2022/05/01 01:23:41;;;;;;;4.30;3.23;;;13.80;97.20;;;;;;5081614;28;20207;-68
2022/05/01 01:26:13;;;;;;;5.37;3.27;;;13.80;97.60;;;;;;5090063;28;20292;-68
2022/05/01 01:28:42;;;;;;;5.27;3.17;;;13.70;97.30;;;;;;5090097;28;20264;-68
2022/05/01 01:34:07;;;;;;;5.27;3.33;;;13.80;97.40;;;;;;5076501;28;20222;-68
2022/05/01 01:36:38;;;;;;;3.77;2.97;;;13.70;97.50;;;;;;5069855;28;20191;-68
2022/05/01 01:39:04;;;;;;;3.00;2.80;;;13.70;97.50;;;;;;5069042;28;20713;-68
2022/05/01 01:41:33;;;;;;;3.73;2.93;;;13.70;97.50;;;;;;5069587;28;20265;-68
2022/05/01 01:44:01;;;;;;;3.83;3.43;;;13.70;97.50;;;;;;5069760;28;20211;-68
2022/05/01 01:46:27;;;;;;;3.53;3.10;;;13.60;97.40;;;;;;5069138;28;20285;-68
2022/05/01 01:48:54;;;;;;;3.53;3.23;;;13.60;97.40;;;;;;5069905;28;20250;-68
2022/05/01 01:51:21;;;;;;;3.97;3.00;;;13.60;97.40;;;;;;5069524;28;20550;-68
2022/05/01 01:53:49;;;;;;;3.53;3.23;;;13.60;97.50;;;;;;5069273;28;20261;-68
2022/05/01 01:56:16;;;;;;;3.30;3.00;;;13.50;97.50;;;;;;5069668;28;20256;-67
2022/05/01 01:58:43;;;;;;;3.30;2.87;;;13.50;97.50;;;;;;5069308;28;20269;-68
2022/05/01 02:01:13;;;;;;;7.20;2.80;;;13.50;97.30;;;;;;5069243;28;20360;-68
2022/05/01 02:03:40;;;;;;;3.53;3.20;;;13.40;97.20;;;;;;5069319;28;20218;-68
2022/05/01 02:06:09;;;;;;;4.77;3.23;;;13.40;97.30;;;;;;5069294;28;20234;-68
2022/05/01 02:08:36;;;;;;;4.83;3.10;;;13.30;97.30;;;;;;5068727;28;20217;-67
2022/05/01 02:11:12;;;;;;;3.30;3.00;;;13.30;97.20;;;;;;5069103;28;20299;-69
2022/05/01 02:13:38;;;;;;;3.37;3.00;;;13.30;97.30;;;;;;5069213;28;20253;-68
2022/05/01 02:16:11;;;;;;;5.37;3.10;;;13.20;97.30;;;;;;5069232;28;20295;-68
2022/05/01 02:18:38;;;;;;;4.03;3.00;;;13.20;97.40;;;;;;5068953;28;20204;-68
2022/05/01 02:23:54;;;;;;;4.23;2.80;;;13.20;97.50;;;;;;5062510;28;20210;-68
2022/05/01 02:26:22;;;;;;;4.23;2.80;;;13.10;97.50;;;;;;5068552;28;20320;-68
2022/05/01 02:28:49;;;;;;;2.80;2.60;;;13.10;97.60;;;;;;5068798;28;20265;-68
2022/05/01 02:31:16;;;;;;;3.37;3.00;;;13.10;97.70;;;;;;5068620;28;20212;-68
2022/05/01 02:33:43;;;;;;;4.10;3.00;;;13.00;97.90;;;;;;5068625;28;20657;-68
2022/05/01 02:36:10;;;;;;;3.30;3.00;;;12.90;97.90;;;;;;5068594;28;20216;-68
2022/05/01 02:38:36;;;;;;;3.30;3.00;;;12.90;98.00;;;;;;5068149;28;20243;-68
2022/05/01 02:41:10;;;;;;;3.20;2.97;;;12.90;98.20;;;;;;5068568;28;20253;-68
2022/05/01 02:43:38;;;;;;;4.77;3.30;;;12.80;98.30;;;;;;5067248;28;20265;-68
2022/05/01 02:46:11;;;;;;;4.97;3.33;;;12.80;98.40;;;;;;5068443;28;20231;-68
2022/05/01 02:48:37;;;;;;;3.20;3.00;;;12.80;98.50;;;;;;5068311;28;20208;-69
2022/05/01 02:51:10;;;;;;;4.37;2.97;;;12.80;98.50;;;;;;5066495;28;20621;-69
2022/05/01 02:53:38;;;;;;;6.30;3.20;;;12.70;98.60;;;;;;5048112;28;20234;-68
2022/05/01 02:56:10;;;;;;;7.33;3.70;;;12.80;98.60;;;;;;5048500;28;20295;-68
2022/05/01 02:58:38;;;;;;;3.33;3.03;;;12.70;98.70;;;;;;5048355;28;20219;-69
2022/05/01 03:01:11;;;;;;;3.53;3.00;;;12.70;98.70;;;;;;5051173;28;20215;-68
2022/05/01 03:03:38;;;;;;;3.80;2.90;;;12.60;98.90;;;;;;5067809;28;20663;-68
2022/05/01 03:06:08;;;;;;;6.33;3.60;;;12.60;99.00;;;;;;5068281;28;20269;-68
2022/05/01 03:08:35;;;;;;;4.43;3.33;;;12.60;99.10;;;;;;5067853;28;20210;-68
2022/05/01 03:11:09;;;;;;;4.53;3.00;;;12.60;99.20;;;;;;5068143;28;20638;-69
2022/05/01 03:13:36;;;;;;;3.77;3.30;;;12.60;99.20;;;;;;5067501;28;20778;-68
2022/05/01 03:16:11;;;;;;;4.77;2.80;;;12.60;99.30;;;;;;5067240;28;20210;-68
2022/05/01 03:24:07;;;;;;;5.03;3.33;;;12.50;99.50;;;;;;5067300;28;20206;-68
2022/05/01 03:26:34;;;;;;;4.03;3.27;;;12.50;99.50;;;;;;5067261;28;20243;-68
2022/05/01 03:29:01;;;;;;;5.70;2.93;;;12.50;99.60;;;;;;5067845;28;20203;-68
2022/05/01 03:31:29;;;;;;;3.23;2.90;;;12.50;99.70;;;;;;5067735;28;20280;-68
2022/05/01 03:33:56;;;;;;;3.60;3.10;;;12.50;99.70;;;;;;5067621;28;20277;-68
2022/05/01 03:36:24;;;;;;;3.43;3.07;;;12.40;99.70;;;;;;5067479;28;20723;-68
2022/05/01 03:38:50;;;;;;;3.33;3.07;;;12.40;99.70;;;;;;5066710;28;20239;-68
2022/05/01 03:41:18;;;;;;;3.57;3.27;;;12.40;99.70;;;;;;5067485;28;20996;-68
2022/05/01 03:43:45;;;;;;;4.17;3.17;;;12.40;99.70;;;;;;5067592;28;20210;-68
2022/05/01 03:46:12;;;;;;;3.50;2.90;;;12.30;99.80;;;;;;5067513;28;20242;-68
2022/05/01 03:48:40;;;;;;;4.37;3.30;;;12.30;99.70;;;;;;5067793;28;20249;-68
2022/05/01 03:51:13;;;;;;;6.20;3.67;;;12.30;99.70;;;;;;5067389;28;20207;-68
2022/05/01 03:53:39;;;;;;;12.17;3.30;;;12.30;99.70;;;;;;5067237;28;20666;-68
2022/05/01 03:56:10;;;;;;;3.23;2.93;;;12.30;99.60;;;;;;5067693;28;20212;-68
2022/05/01 03:58:37;;;;;;;3.27;2.97;;;12.20;99.60;;;;;;5067338;28;20210;-68
2022/05/01 04:01:11;;;;;;;5.00;3.20;;;12.20;99.60;;;;;;5060672;28;20200;-68
2022/05/01 04:03:37;;;;;;;3.80;2.93;;;12.20;99.70;;;;;;5047569;28;20195;-68
2022/05/01 04:06:11;;;;;;;3.50;2.90;;;12.10;99.90;;;;;;5047150;28;20720;-68
2022/05/01 04:08:38;;;;;;;4.47;2.80;;;12.10;99.50;;;;;;5046964;28;20674;-68
2022/05/01 04:11:11;;;;;;;3.70;3.17;;;12.10;99.50;;;;;;5047122;28;20666;-68
2022/05/01 04:13:38;;;;;;;3.23;2.60;;;12.10;99.40;;;;;;5047328;28;20286;-68
2022/05/01 04:16:11;;;;;;;3.57;2.93;;;12.10;99.20;;;;;;5047485;28;20870;-68
2022/05/01 04:18:38;;;;;;;3.60;2.90;;;12.10;99.30;;;;;;5047581;28;20189;-68
2022/05/01 04:21:13;;;;;;;3.30;2.77;;;12.10;99.30;;;;;;5047418;28;20582;-68
2022/05/01 04:23:40;;;;;;;4.37;2.97;;;12.10;99.20;;;;;;5059226;28;20289;-68
2022/05/01 04:26:10;;;;;;;4.17;2.83;;;12.10;99.20;;;;;;5066795;28;20713;-68
2022/05/01 04:28:38;;;;;;;2.93;2.70;;;12.10;99.30;;;;;;5068645;28;20204;-68
2022/05/01 04:31:10;;;;;;;5.23;3.00;;;12.00;99.30;;;;;;5070955;28;20291;-68
2022/05/01 04:33:37;;;;;;;4.40;2.90;;;12.00;99.30;;;;;;5070458;28;20221;-68
2022/05/01 04:36:08;;;;;;;3.83;2.73;;;12.10;99.40;;;;;;5070259;28;20214;-68
2022/05/01 04:38:36;;;;;;;3.27;2.37;;;12.10;99.40;;;;;;5070412;28;20239;-68
2022/05/01 04:41:04;;;;;;;3.70;3.00;;;12.10;99.30;;;;;;5070991;28;20269;-68
2022/05/01 04:43:31;;;;;;;4.00;2.80;;;12.10;99.40;;;;;;5070414;28;20204;-68
2022/05/01 04:45:58;;;;;;;4.30;2.73;;;12.10;99.40;;;;;;5070768;28;20208;-68
2022/05/01 04:48:26;;;;;;;3.10;2.80;;;12.10;99.60;;;;;;5070090;28;20964;-68
2022/05/01 04:50:53;;;;;;;2.80;2.60;;;12.20;99.70;;;;;;5070496;28;20207;-68
2022/05/01 04:53:22;;;;;;;2.87;2.67;;;12.20;99.80;;;;;;5070052;28;20208;-68
2022/05/01 04:55:52;;;;;;;2.57;2.40;;;12.20;99.80;;;;;;5070487;28;20246;-68
2022/05/01 04:58:20;;;;;;;3.10;2.80;;;12.30;99.80;;;;;;5070158;28;20229;-68
2022/05/01 05:00:48;;;;;;;3.53;2.83;;;12.30;99.70;;;;;;5065872;28;20200;-68
2022/05/01 05:03:15;;;;;;;8.87;3.53;;;12.30;99.80;;;;;;5050299;28;20205;-68
2022/05/01 05:05:42;;;;;;;3.80;3.00;;;12.40;99.70;;;;;;5050573;28;20212;-68
2022/05/01 05:10:54;;;;;;;3.23;2.83;;;12.40;99.30;;;;;;5050203;28;20336;-68
2022/05/01 05:13:24;;;;;;;3.80;2.83;;;12.40;99.20;;;;;;5050021;28;20224;-68
2022/05/01 05:15:50;;;;;;;4.80;2.67;;;12.40;99.20;;;;;;5050331;28;20212;-68
2022/05/01 05:18:17;;;;;;;2.83;2.67;;;12.40;99.50;;;;;;5049956;28;20265;-69
2022/05/01 05:20:44;;;;;;;3.43;3.10;;;12.50;99.60;;;;;;5050237;28;20207;-68
2022/05/01 05:23:10;;;;;;;3.00;2.80;;;12.50;99.70;;;;;;5069108;28;20264;-68
2022/05/01 05:25:37;;;;;;;4.40;2.87;;;12.50;99.60;;;;;;5069969;28;20675;-68
2022/05/01 05:28:07;;;;;;;5.67;3.13;;;12.60;99.60;;;;;;5069948;28;20305;-68
2022/05/01 05:30:34;;;;;;;3.70;2.67;;;12.60;99.50;;;;;;5069746;28;20192;-68
2022/05/01 05:33:00;;;;;;;12.37;3.60;;;12.70;99.70;;;;;;5069625;28;20212;-68
2022/05/01 05:35:27;;;;;;;3.20;2.90;;;12.70;99.70;;;;;;5069689;28;20230;-68
2022/05/01 05:37:54;;;;;;;4.23;3.20;;;12.80;99.80;;;;;;5069947;28;20219;-68
2022/05/01 05:40:21;;;;;;;3.57;2.73;;;12.80;99.80;;;;;;5068354;28;20653;-68
2022/05/01 05:42:47;;;;;;;4.23;2.90;;;12.80;99.70;;;;;;5069224;28;20666;-68
2022/05/01 05:45:15;;;;;;;6.83;3.20;;;12.90;99.60;;;;;;5069659;28;20546;-68
2022/05/01 05:47:42;;;;;;;4.77;2.90;;;12.90;99.90;;;;;;5069623;28;20235;-68
2022/05/01 05:50:10;;;;;;;6.03;3.33;;;13.00;99.90;;;;;;5069210;28;20211;-68
2022/05/01 05:52:36;;;;;;;3.43;2.80;;;13.10;99.60;;;;;;5054489;28;20574;-68
2022/05/01 05:55:03;;;;;;;5.30;3.07;;;13.10;99.70;;;;;;5049210;28;20232;-68
2022/05/01 05:57:30;;;;;;;5.30;3.20;;;13.20;99.80;;;;;;5048805;28;20604;-68
2022/05/01 05:59:56;;;;;;;6.73;2.80;;;13.20;99.60;;;;;;5049407;28;20204;-68
2022/05/01 06:02:24;;;;;;;3.63;3.20;;;13.30;99.50;;;;;;5049087;28;20265;-68
2022/05/01 06:04:51;;;;;;;6.43;3.10;;;13.30;99.50;;;;;;5049241;28;20204;-68
2022/05/01 06:07:18;;;;;;;7.57;3.30;;;13.30;99.30;;;;;;5048708;28;20232;-68
2022/05/01 06:09:44;;;;;;;3.03;2.67;;;13.40;99.30;;;;;;5049114;28;20204;-68
2022/05/01 06:12:11;;;;;;;5.43;2.80;;;13.40;99.20;;;;;;5049096;28;20208;-68
2022/05/01 06:14:39;;;;;;;3.27;2.97;;;13.30;99.20;;;;;;5049011;28;20224;-68
2022/05/01 06:17:06;;;;;;;3.07;2.80;;;13.30;99.30;;;;;;5049007;28;20212;-68
2022/05/01 06:19:34;;;;;;;5.00;3.30;;;13.30;99.20;;;;;;5048876;28;20266;-68
2022/05/01 06:22:00;;;;;;;4.07;3.00;;;13.30;99.20;;;;;;5058483;28;20277;-69
2022/05/01 06:24:27;;;;;;;6.13;3.20;;;13.20;99.50;;;;;;5068476;28;20212;-68
2022/05/01 06:26:53;;;;;;;4.40;3.13;;;13.30;99.40;;;;;;5068626;28;21040;-68
2022/05/01 06:29:20;;;;;;;4.60;2.90;;;13.30;99.40;;;;;;5049767;28;20216;-68
2022/05/01 06:31:47;;;;;;;3.70;2.73;;;13.40;99.30;;;;;;5048438;28;20647;-68
2022/05/01 06:34:15;;;;;;;4.70;2.70;;;13.50;99.30;;;;;;5048582;28;20241;-69
2022/05/01 06:36:43;;;;;;;5.97;2.87;;;13.50;99.00;;;;;;5048739;28;20272;-68
2022/05/01 06:39:11;;;;;;;5.50;2.80;;;13.60;98.80;;;;;;5048030;28;20236;-68
2022/05/01 06:41:38;;;;;;;4.60;2.90;;;13.60;98.60;;;;;;5052959;28;20216;-68
2022/05/01 06:44:04;;;;;;;5.10;2.87;;;13.70;98.40;;;;;;5068485;28;20265;-68
2022/05/01 06:46:31;;;;;;;2.83;2.63;;;13.80;98.40;;;;;;5068647;28;20256;-68
2022/05/01 06:48:59;;;;;;;4.07;2.90;;;13.80;98.20;;;;;;5068524;28;20203;-68
2022/05/01 06:51:26;;;;;;;10.83;3.33;;;13.90;98.10;;;;;;5062705;28;20295;-69
2022/05/01 06:53:54;;;;;;;4.90;2.90;;;14.00;98.10;;;;;;5048256;28;20208;-70
2022/05/01 06:56:20;;;;;;;3.93;2.77;;;13.90;98.00;;;;;;5048302;28;20204;-68
2022/05/01 06:58:47;;;;;;;3.73;2.77;;;14.10;98.00;;;;;;5048154;28;20204;-68
2022/05/01 07:01:13;;;;;;;4.47;2.90;;;14.10;97.90;;;;;;5047883;28;20684;-68
2022/05/01 07:03:42;;;;;;;3.57;2.80;;;14.10;97.90;;;;;;5048312;28;20254;-68
2022/05/01 07:06:11;;;;;;;3.30;2.83;;;14.20;98.20;;;;;;5047910;28;20318;-68
2022/05/01 07:08:38;;;;;;;3.23;2.87;;;14.20;97.90;;;;;;5047778;28;20227;-68
2022/05/01 07:11:12;;;;;;;2.97;2.60;;;14.30;97.90;;;;;;5048019;28;20216;-68
2022/05/01 07:13:40;;;;;;;3.10;2.80;;;14.30;97.90;;;;;;5048082;28;20224;-68
2022/05/01 07:16:12;;;;;;;3.40;2.93;;;14.40;97.80;;;;;;5048124;28;20238;-68
2022/05/01 07:18:39;;;;;;;9.37;3.53;;;14.50;97.80;;;;;;5047864;28;20211;-68
2022/05/01 07:21:09;;;;;;;5.53;3.07;;;14.60;97.40;;;;;;5049960;28;20273;-68
2022/05/01 07:23:35;;;;;;;2.77;2.57;;;14.70;97.10;;;;;;5067069;28;20208;-68
2022/05/01 07:26:10;;;;;;;4.03;2.90;;;14.80;97.10;;;;;;5067614;28;20203;-68
2022/05/01 07:28:39;;;;;;;16.10;3.23;;;14.80;96.80;;;;;;5067573;28;20249;-68
2022/05/01 07:31:09;;;;;;;3.43;2.33;;;14.90;96.60;;;;;;5067668;28;20400;-68
2022/05/01 07:33:36;;;;;;;4.37;2.80;;;15.00;96.30;;;;;;5067495;28;20203;-68
2022/05/01 07:36:11;;;;;;;4.33;2.27;;;14.90;95.30;;;;;;5067725;28;20234;-68
2022/05/01 07:38:37;;;;;;;4.47;2.40;;;15.00;95.30;;;;;;5067131;28;20241;-68
2022/05/01 07:41:13;;;;;;;3.07;2.37;;;15.10;95.20;;;;;;5067591;28;20204;-68
2022/05/01 07:43:41;;;;;;;26.83;3.73;;;15.10;95.00;;;;;;5060751;28;20237;-68
2022/05/01 07:46:11;;;;;;;3.77;2.10;;;15.20;94.40;;;;;;5067673;28;20195;-68
2022/05/01 07:48:37;;;;;;;3.20;1.90;;;15.20;94.40;;;;;;5067529;28;20235;-68
2022/05/01 07:51:11;;;;;;;3.43;1.70;;;15.20;94.60;;;;;;5067556;28;20211;-68
2022/05/01 07:53:38;;;;;;;1.90;1.80;;;15.20;93.70;;;;;;5067328;28;20192;-68
2022/05/01 07:56:14;;;;;;;2.50;1.50;;;15.20;93.50;;;;;;5067656;28;20261;-68
2022/05/01 07:58:42;;;;;;;3.50;1.70;;;15.30;92.70;;;;;;5067475;28;20302;-68
2022/05/01 08:01:08;;;;;;;2.23;2.00;;;15.30;92.50;;;;;;5067372;28;20207;-68
2022/05/01 08:06:21;;;;;;;2.87;1.60;;;15.20;92.20;;;;;;5071355;28;20260;-68
2022/05/01 08:08:49;;;;;;;1.67;1.43;;;15.20;92.40;;;;;;5071284;28;20235;-68
2022/05/01 08:11:15;;;;;;;2.90;1.63;;;15.20;92.90;;;;;;5071462;28;20261;-68
2022/05/01 08:13:43;;;;;;;2.87;1.47;;;15.20;92.50;;;;;;5071349;28;20230;-68
2022/05/01 08:16:17;;;;;;;3.97;1.70;;;15.20;92.50;;;;;;5071367;28;20207;-68
2022/05/01 08:21:31;;;;;;;8.93;1.80;;;15.20;92.30;;;;;;5065348;28;20227;-68
2022/05/01 08:23:58;;;;;;;4.17;1.77;;;15.20;92.30;;;;;;5065285;28;20218;-68
2022/05/01 08:26:24;;;;;;;3.00;1.53;;;15.20;92.20;;;;;;5071191;28;20261;-68
2022/05/01 08:28:54;;;;;;;21.17;2.90;;;15.20;92.30;;;;;;5070966;28;20288;-68
2022/05/01 08:31:23;;;;;;;4.60;1.77;;;15.20;92.10;;;;;;5071091;28;20725;-68
2022/05/01 08:33:50;;;;;;;4.33;1.50;;;15.20;92.20;;;;;;5071007;28;20203;-68
2022/05/01 08:36:17;;;;;;;3.03;1.33;;;15.20;92.10;;;;;;5070425;28;20737;-68
2022/05/01 08:38:44;;;;;;;2.93;1.33;;;15.20;92.10;;;;;;5070454;28;20304;-68
2022/05/01 08:41:18;;;;;;;4.07;1.53;;;15.20;91.80;;;;;;5070687;28;20204;-68
2022/05/01 08:43:44;;;;;;;4.17;1.20;;;15.10;91.50;;;;;;5070881;28;20215;-67
2022/05/01 08:46:41;;;;;;;1.33;1.03;;;15.20;91.10;;;;;;5070703;28;20199;-69
2022/05/01 08:49:09;;;;;;;3.70;1.20;;;15.20;90.40;;;;;;5070492;28;20219;-68
2022/05/01 08:51:38;;;;;;;2.77;1.20;;;15.20;90.40;;;;;;5070625;28;20239;-67
2022/05/01 08:54:07;;;;;;;1.40;1.30;;;15.20;90.40;;;;;;5070491;28;20199;-67
2022/05/01 08:56:34;;;;;;;3.63;1.40;;;15.10;89.70;;;;;;5070325;28;20211;-67
2022/05/01 08:59:02;;;;;;;6.43;2.00;;;15.10;90.00;;;;;;5070188;28;20685;-67
2022/05/01 09:01:34;;;;;;;1.60;1.50;;;15.00;89.90;;;;;;5070410;28;20649;-67
2022/05/01 09:04:01;;;;;;;2.13;1.60;;;15.00;90.50;;;;;;5070447;28;20547;-67
2022/05/01 09:06:28;;;;;;;2.73;1.93;;;15.00;91.10;;;;;;5070651;28;20352;-67
2022/05/01 09:08:54;;;;;;;2.90;1.37;;;14.90;91.90;;;;;;5070089;28;20274;-67
2022/05/01 09:14:17;;;;;;;3.60;1.20;;;14.80;91.70;;;;;;5043782;28;20767;-69
2022/05/01 09:17:12;;;;;;;2.27;1.60;;;14.90;91.90;;;;;;5069747;28;20265;-67
2022/05/01 09:19:39;;;;;;;5.77;2.03;;;14.90;92.10;;;;;;5069760;28;20701;-67
2022/05/01 09:22:06;;;;;;;7.23;2.10;;;14.90;92.30;;;;;;5070202;28;20215;-67
2022/05/01 09:24:33;;;;;;;2.47;2.07;;;14.80;92.60;;;;;;5069820;28;20207;-67
2022/05/01 09:27:01;;;;;;;5.87;1.87;;;14.70;92.80;;;;;;5070193;28;21007;-68
2022/05/01 09:29:32;;;;;;;5.20;1.83;;;14.60;92.60;;;;;;5069669;28;20239;-67
2022/05/01 09:32:01;;;;;;;3.93;1.67;;;14.70;93.10;;;;;;5070462;28;20212;-67
2022/05/01 09:34:29;;;;;;;2.70;1.57;;;14.60;93.30;;;;;;5070221;28;20208;-67
2022/05/01 09:36:58;;;;;;;1.83;1.70;;;14.50;93.80;;;;;;5070042;28;20203;-68
2022/05/01 09:39:27;;;;;;;2.43;1.73;;;14.60;94.00;;;;;;5069179;28;20652;-67
2022/05/01 09:41:54;;;;;;;5.07;1.73;;;14.60;93.80;;;;;;5069910;28;20218;-67
2022/05/01 09:44:23;;;;;;;2.67;1.63;;;14.70;93.30;;;;;;5069459;28;20212;-67
2022/05/01 09:46:51;;;;;;;3.33;1.50;;;14.70;93.70;;;;;;5069329;28;20199;-68
2022/05/01 09:49:20;;;;;;;6.10;1.80;;;14.70;93.70;;;;;;5069780;28;20280;-68
2022/05/01 09:51:54;;;;;;;2.10;1.50;;;14.90;93.60;;;;;;5069564;28;20558;-68
2022/05/01 09:54:22;;;;;;;1.83;1.70;;;14.90;93.40;;;;;;5069204;28;20327;-68
2022/05/01 09:56:51;;;;;;;3.90;1.80;;;14.90;93.00;;;;;;5069568;28;20273;-68
2022/05/01 09:59:19;;;;;;;3.17;1.50;;;14.80;93.10;;;;;;5069260;28;20218;-68
2022/05/01 10:02:01;;;;;;;4.33;1.67;;;14.90;93.40;;;;;;5069062;28;20206;-68
2022/05/01 10:04:30;;;;;;;4.87;1.80;;;15.00;93.70;;;;;;5068986;28;20214;-68
2022/05/01 10:06:58;;;;;;;6.10;2.40;;;14.90;93.20;;;;;;5069197;28;20207;-68
2022/05/01 10:09:26;;;;;;;8.77;1.50;;;15.00;93.80;;;;;;5068367;28;20706;-68
2022/05/01 10:11:55;;;;;;;4.03;1.50;;;15.10;93.80;;;;;;5069031;28;20211;-68
2022/05/01 10:14:22;;;;;;;1.90;1.63;;;15.10;93.20;;;;;;5068092;28;20234;-68
2022/05/01 10:16:50;;;;;;;4.30;1.70;;;15.20;93.60;;;;;;5068470;28;20892;-68
2022/05/01 10:19:17;;;;;;;2.00;1.77;;;15.20;93.00;;;;;;5068835;28;20210;-68
2022/05/01 10:21:48;;;;;;;4.20;1.77;;;15.30;93.00;;;;;;5061590;28;20266;-67
2022/05/01 10:24:15;;;;;;;1.77;1.67;;;15.40;93.40;;;;;;5065350;28;20759;-68
2022/05/01 10:26:48;;;;;;;18.50;2.50;;;15.40;93.00;;;;;;5068510;28;20211;-68
2022/05/01 10:29:39;;;;;;;3.07;1.53;;;15.40;93.10;;;;;;5068623;28;20312;-67
2022/05/01 10:32:32;;;;;;;2.10;1.90;;;15.40;92.90;;;;;;5068767;28;20195;-68
2022/05/01 10:35:35;;;;;;;2.87;1.70;;;15.50;93.00;;;;;;5068997;28;20215;-68
2022/05/01 10:38:17;;;;;;;2.00;1.90;;;15.50;92.90;;;;;;5068534;28;20199;-67
2022/05/01 10:40:47;;;;;;;2.23;1.60;;;15.60;92.80;;;;;;5068346;28;20218;-68
2022/05/01 10:43:25;;;;;;;3.57;2.20;;;15.60;93.30;;;;;;5049886;28;20567;-67
2022/05/01 10:45:53;;;;;;;2.40;2.00;;;15.60;92.80;;;;;;5048418;28;20250;-68
2022/05/01 10:48:30;;;;;;;3.87;1.80;;;15.70;92.90;;;;;;5048398;28;20224;-67
2022/05/01 10:51:34;;;;;;;3.00;1.60;;;15.80;93.00;;;;;;5049074;28;20649;-67
2022/05/01 10:54:38;;;;;;;3.73;1.70;;;15.80;92.90;;;;;;5067580;28;20207;-68
2022/05/01 10:57:14;;;;;;;3.77;2.07;;;15.80;92.80;;;;;;5065380;28;20223;-67
2022/05/01 10:59:46;;;;;;;5.30;2.07;;;15.80;93.00;;;;;;5068135;28;20203;-68
2022/05/01 11:02:40;;;;;;;2.43;2.33;;;15.90;93.10;;;;;;5067932;28;20201;-68
2022/05/01 11:05:09;;;;;;;4.27;2.17;;;15.90;92.40;;;;;;5049788;28;20662;-68
2022/05/01 11:07:39;;;;;;;4.33;2.10;;;15.90;92.70;;;;;;5067803;28;20213;-67
2022/05/01 11:10:10;;;;;;;3.90;1.97;;;15.90;92.70;;;;;;5066934;28;20665;-67
2022/05/01 11:12:38;;;;;;;2.57;2.37;;;15.90;92.30;;;;;;5067886;28;20534;-68
2022/05/01 11:15:07;;;;;;;2.30;2.10;;;15.90;92.10;;;;;;5067870;28;20203;-68
2022/05/01 11:17:56;;;;;;;3.43;2.50;;;15.90;92.50;;;;;;5067947;28;20257;-68
2022/05/01 11:20:40;;;;;;;4.00;2.30;;;15.90;92.70;;;;;;5067465;28;20232;-68
2022/05/01 11:23:30;;;;;;;5.33;1.90;;;16.10;92.80;;;;;;5055945;28;20669;-68
2022/05/01 11:26:22;;;;;;;6.50;2.00;;;16.00;92.70;;;;;;5067429;28;20239;-68
2022/05/01 11:28:54;;;;;;;2.10;1.90;;;16.10;92.80;;;;;;5067316;28;20219;-67
2022/05/01 11:31:49;;;;;;;1.87;1.77;;;16.20;92.60;;;;;;5067280;28;20203;-68
2022/05/01 11:34:53;;;;;;;2.90;1.70;;;16.30;92.30;;;;;;5067286;28;20211;-67
2022/05/01 11:37:21;;;;;;;3.53;2.00;;;16.40;92.30;;;;;;5066563;28;20693;-67
2022/05/01 11:40:23;;;;;;;2.03;1.83;;;16.40;92.10;;;;;;5066924;28;20725;-68
2022/05/01 11:42:52;;;;;;;4.27;2.00;;;16.50;92.00;;;;;;4985136;28;20205;-68
2022/05/01 11:45:19;;;;;;;2.20;2.00;;;16.50;92.10;;;;;;4985283;28;20205;-68
2022/05/01 11:47:51;;;;;;;2.27;2.07;;;16.60;92.00;;;;;;5023610;28;20368;-67
2022/05/01 11:50:24;;;;;;;3.23;1.90;;;16.60;92.30;;;;;;5067166;28;20216;-67
2022/05/01 11:52:54;;;;;;;3.27;1.90;;;16.60;92.30;;;;;;5067440;28;20246;-68
2022/05/01 12:02:24;;;;;;;3.33;1.90;;;16.70;92.20;;;;;;5066769;28;20545;-67
2022/05/01 12:03:39;;;;;;;4.33;2.43;;;16.80;91.70;;;;;;5067338;28;20202;-68
2022/05/01 12:06:35;;;;;;;18.93;2.97;;;16.80;91.80;;;;;;5066673;28;20293;-68
2022/05/01 12:09:01;;;;;;;1.87;1.77;;;16.90;91.70;;;;;;5019960;28;20335;-68
2022/05/01 12:11:31;;;;;;;1.97;1.87;;;16.80;91.50;;;;;;5067377;28;20211;-67
2022/05/01 12:14:09;;;;;;;4.27;1.57;;;16.80;91.70;;;;;;5067145;28;20234;-68
2022/05/01 12:16:35;;;;;;;3.20;1.53;;;16.60;90.90;;;;;;5067251;28;20192;-68
2022/05/01 12:19:03;;;;;;;2.70;1.53;;;16.60;90.90;;;;;;5067148;28;20247;-67
2022/05/01 12:21:36;;;;;;;11.57;2.40;;;16.60;91.30;;;;;;5061904;28;20211;-68
2022/05/01 12:24:04;;;;;;;2.33;1.77;;;16.50;91.20;;;;;;5062137;28;20210;-68
2022/05/01 12:26:34;;;;;;;2.37;1.67;;;16.50;91.20;;;;;;5066865;28;20728;-68
2022/05/01 12:29:01;;;;;;;6.07;1.90;;;16.40;90.70;;;;;;5066848;28;20231;-67
2022/05/01 12:31:29;;;;;;;3.50;1.47;;;16.20;90.90;;;;;;5066760;28;20657;-68
2022/05/01 12:33:56;;;;;;;6.63;2.17;;;16.20;91.10;;;;;;5066996;28;20694;-67
2022/05/01 12:36:27;;;;;;;3.27;1.80;;;15.90;91.00;;;;;;5066604;28;20207;-68
2022/05/01 12:39:04;;;;;;;14.73;2.60;;;15.90;91.50;;;;;;5066382;28;20247;-68
2022/05/01 12:44:16;;;;;;;9.10;1.87;;;16.10;91.50;;;;;;5066449;28;20572;-67
2022/05/01 12:46:53;;;;;;;4.77;1.77;;;16.10;91.40;;;;;;5066665;28;20207;-68
2022/05/01 12:49:27;;;;;;;18.20;2.80;;;16.10;91.40;;;;;;5067636;28;20221;-67
2022/05/01 12:51:55;;;;;;;2.27;1.60;;;16.10;91.80;;;;;;5061697;28;20207;-67
2022/05/01 12:54:21;;;;;;;2.00;1.50;;;16.10;91.50;;;;;;5050206;28;20204;-68
2022/05/01 12:56:48;;;;;;;3.37;1.97;;;16.20;91.60;;;;;;5050625;28;20337;-68
2022/05/01 12:59:28;;;;;;;7.63;1.87;;;16.30;91.60;;;;;;5050110;28;20314;-68
2022/05/01 13:01:57;;;;;;;25.03;2.87;;;16.30;91.50;;;;;;5053427;28;20586;-68
2022/05/01 13:04:25;;;;;;;2.30;1.60;;;16.40;91.70;;;;;;5049951;28;20204;-67
2022/05/01 13:06:52;;;;;;;3.67;1.70;;;16.40;91.50;;;;;;5050068;28;20299;-67
2022/05/01 13:09:19;;;;;;;1.50;1.40;;;16.40;91.60;;;;;;5049746;28;20244;-67
2022/05/01 13:12:00;;;;;;;3.63;1.63;;;16.50;91.70;;;;;;5050056;28;20242;-68
2022/05/01 13:14:32;;;;;;;4.63;1.43;;;16.60;91.90;;;;;;5049710;28;20228;-68
2022/05/01 13:17:09;;;;;;;2.77;1.63;;;16.70;91.90;;;;;;5049949;28;20193;-68
2022/05/01 13:19:38;;;;;;;2.50;1.50;;;16.80;91.50;;;;;;5050409;28;20200;-68
2022/05/01 13:22:06;;;;;;;1.70;1.40;;;16.90;91.60;;;;;;5059566;28;20212;-68
2022/05/01 13:24:34;;;;;;;30.97;3.60;;;16.90;91.20;;;;;;5068935;28;20204;-68
2022/05/01 13:27:03;;;;;;;5.77;2.07;;;17.10;91.30;;;;;;5069840;28;20273;-68
2022/05/01 13:29:32;;;;;;;3.70;1.70;;;17.10;91.10;;;;;;5069122;28;20277;-67
2022/05/01 13:32:00;;;;;;;2.70;1.60;;;17.30;91.30;;;;;;5069623;28;20252;-68
2022/05/01 13:34:28;;;;;;;7.80;1.97;;;17.50;91.20;;;;;;5069483;28;20210;-68